Time;durP1;ratioP1;P1;durP2;ratioP2;P2;SDS_P1;SDS_P2;PMS_P1;PMS_P2;Temp;Humidity;BMP_temperature;BMP_pressure;BME280_temperature;BME280_humidity;BME280_pressure;Samples;Min_cycle;Max_cycle;Signal;HPM_P1;HPM_P2
2021/03/03 00:00:56;;;;;;;70.60;40.13;;;154.50;1868.80;;;;;;4913840;29;20056;-76
2021/03/03 00:03:22;;;;;;;65.10;38.00;;;154.50;1868.80;;;;;;4917386;29;20482;-76
2021/03/03 00:05:47;;;;;;;67.35;37.65;;;154.50;1868.80;;;;;;4918275;29;20532;-75
2021/03/03 00:08:13;;;;;;;55.85;36.88;;;179.20;1868.80;;;;;;4914647;29;20024;-76
2021/03/03 00:10:39;;;;;;;67.20;38.17;;;179.20;1843.20;;;;;;4911062;29;20021;-74
2021/03/03 00:13:04;;;;;;;67.45;37.97;;;154.50;1843.20;;;;;;4915979;29;20035;-73
2021/03/03 00:15:30;;;;;;;66.70;39.53;;;179.20;1843.20;;;;;;4916304;29;20040;-74
2021/03/03 00:17:56;;;;;;;59.72;37.58;;;154.50;1843.20;;;;;;4916023;29;20028;-75
2021/03/03 00:20:21;;;;;;;60.05;36.15;;;179.20;1843.20;;;;;;4911943;29;20024;-75
2021/03/03 00:22:47;;;;;;;63.90;38.60;;;154.50;1843.20;;;;;;4904101;29;20056;-76
2021/03/03 00:25:13;;;;;;;59.47;38.70;;;154.50;1843.20;;;;;;4916795;29;20032;-75
2021/03/03 00:27:38;;;;;;;61.72;37.42;;;154.50;1843.20;;;;;;4909965;29;20040;-75
2021/03/03 00:30:05;;;;;;;62.53;40.33;;;154.40;1843.20;;;;;;4918140;29;20498;-74
2021/03/03 00:32:30;;;;;;;70.13;41.80;;;154.40;1868.80;;;;;;4918179;29;20047;-76
2021/03/03 00:34:56;;;;;;;65.97;41.30;;;154.30;1843.20;;;;;;4915061;29;20050;-74
2021/03/03 00:37:22;;;;;;;70.80;43.78;;;154.30;1868.80;;;;;;4918849;29;20077;-75
2021/03/03 00:39:47;;;;;;;69.15;42.13;;;154.20;1868.80;;;;;;4915361;29;20524;-74
2021/03/03 00:42:13;;;;;;;72.85;42.58;;;154.20;1868.80;;;;;;4918826;29;20434;-74
2021/03/03 00:44:39;;;;;;;70.22;41.47;;;154.20;1868.80;;;;;;4911714;29;20024;-74
2021/03/03 00:47:04;;;;;;;70.70;41.85;;;154.20;1868.80;;;;;;4910646;29;20039;-75
2021/03/03 00:49:31;;;;;;;72.80;44.75;;;154.20;1868.80;;;;;;4916850;29;20035;-75
2021/03/03 00:51:56;;;;;;;67.50;38.95;;;154.20;1868.80;;;;;;4912421;29;20392;-75
2021/03/03 00:54:22;;;;;;;67.10;40.47;;;154.10;1868.80;;;;;;4904073;29;20115;-75
2021/03/03 00:56:48;;;;;;;64.32;40.33;;;154.10;1868.80;;;;;;4911331;29;20029;-76
2021/03/03 00:59:13;;;;;;;67.70;41.53;;;154.10;1868.80;;;;;;4912308;29;20028;-75
2021/03/03 01:01:39;;;;;;;66.20;39.33;;;154.10;1868.80;;;;;;4908064;29;20142;-75
2021/03/03 01:04:05;;;;;;;61.45;39.60;;;154.10;1894.40;;;;;;4910449;29;20548;-75
2021/03/03 01:06:31;;;;;;;65.30;38.55;;;154.00;1868.80;;;;;;4909717;29;20032;-75
2021/03/03 01:08:56;;;;;;;65.63;38.47;;;154.00;1894.40;;;;;;4912028;29;20035;-76
2021/03/03 01:11:22;;;;;;;58.78;37.28;;;154.00;1868.80;;;;;;4915303;29;20068;-76
2021/03/03 01:13:48;;;;;;;64.85;39.70;;;154.00;1894.40;;;;;;4912065;29;20394;-76
2021/03/03 01:16:14;;;;;;;62.80;35.78;;;154.00;1894.40;;;;;;4908963;29;20036;-76
2021/03/03 01:18:39;;;;;;;62.78;38.35;;;153.90;1894.40;;;;;;4908841;29;20044;-75
2021/03/03 01:21:05;;;;;;;60.17;37.88;;;153.90;1894.40;;;;;;4914729;29;20510;-76
2021/03/03 01:23:31;;;;;;;59.78;37.95;;;153.90;1894.40;;;;;;4906748;29;20500;-76
2021/03/03 01:25:57;;;;;;;68.43;37.70;;;153.90;1894.40;;;;;;4909380;29;20393;-75
2021/03/03 01:28:22;;;;;;;59.88;37.65;;;153.80;1894.40;;;;;;4911198;29;20114;-75
2021/03/03 01:30:48;;;;;;;60.95;36.03;;;153.90;1894.40;;;;;;4893689;29;20036;-75
2021/03/03 01:33:28;;;;;;;62.90;35.53;;;153.80;1894.40;;;;;;4913390;29;20039;-76
2021/03/03 01:35:54;;;;;;;57.63;33.95;;;153.80;1920.00;;;;;;4909745;29;20036;-75
2021/03/03 01:38:20;;;;;;;64.13;37.60;;;153.80;1894.40;;;;;;4903495;29;20123;-74
2021/03/03 01:40:46;;;;;;;61.08;37.45;;;153.80;1920.00;;;;;;4913179;29;20079;-75
2021/03/03 01:43:12;;;;;;;55.90;34.40;;;153.80;1920.00;;;;;;4915596;29;20440;-75
2021/03/03 01:45:38;;;;;;;61.28;36.40;;;153.70;1920.00;;;;;;4916824;29;20426;-75
2021/03/03 01:48:05;;;;;;;63.83;36.08;;;153.70;1920.00;;;;;;4920284;29;20072;-74
2021/03/03 01:50:31;;;;;;;56.60;34.78;;;153.70;1920.00;;;;;;4917181;29;20042;-74
2021/03/03 01:52:58;;;;;;;60.47;39.25;;;153.70;1920.00;;;;;;4921664;29;20107;-74
2021/03/03 01:55:24;;;;;;;63.35;37.70;;;153.60;1920.00;;;;;;4921346;29;20056;-74
2021/03/03 01:57:51;;;;;;;57.28;36.85;;;153.60;1920.00;;;;;;4921599;29;20044;-74
2021/03/03 02:00:17;;;;;;;56.45;37.00;;;153.60;1920.00;;;;;;4914520;29;20412;-74
2021/03/03 02:02:43;;;;;;;54.05;36.03;;;153.60;1945.60;;;;;;4916743;29;20027;-74
2021/03/03 02:05:10;;;;;;;70.70;39.83;;;153.60;1945.60;;;;;;4920695;29;20393;-74
2021/03/03 02:07:45;;;;;;;61.90;37.33;;;153.60;1945.60;;;;;;4922637;29;20028;-74
2021/03/03 02:10:46;;;;;;;61.75;37.45;;;153.60;1945.60;;;;;;4927066;29;20484;-75
2021/03/03 02:13:14;;;;;;;57.70;36.72;;;128.90;1945.60;;;;;;4876957;29;20047;-74
2021/03/03 02:15:42;;;;;;;62.65;36.35;;;128.90;1945.60;;;;;;4879778;29;20041;-75
2021/03/03 02:18:10;;;;;;;60.53;36.20;;;128.90;1945.60;;;;;;4874651;29;20100;-74
2021/03/03 02:21:05;;;;;;;60.58;36.40;;;128.90;1945.60;;;;;;4888738;29;20040;-75
2021/03/03 02:23:55;;;;;;;61.92;37.25;;;128.90;1945.60;;;;;;4876708;29;20049;-74
2021/03/03 02:26:33;;;;;;;63.65;37.55;;;128.90;1945.60;;;;;;4877068;29;20053;-74
2021/03/03 02:29:01;;;;;;;68.18;38.70;;;153.60;1945.60;;;;;;4880488;29;20045;-75
2021/03/03 02:31:27;;;;;;;62.72;37.65;;;153.60;1945.60;;;;;;4861264;29;20021;-75
2021/03/03 02:33:53;;;;;;;65.47;41.20;;;128.90;1945.60;;;;;;4881119;29;20151;-75
2021/03/03 02:36:22;;;;;;;67.22;37.50;;;128.90;1945.60;;;;;;4895650;29;20141;-75
2021/03/03 02:38:48;;;;;;;65.72;39.72;;;128.90;1945.60;;;;;;4876895;29;20065;-74
2021/03/03 02:41:18;;;;;;;66.47;40.90;;;128.90;1920.00;;;;;;4869884;29;20482;-74
2021/03/03 02:43:44;;;;;;;77.22;43.28;;;128.80;1945.60;;;;;;4882081;29;20037;-75
2021/03/03 02:46:10;;;;;;;66.82;39.75;;;128.80;1945.60;;;;;;4880123;29;20498;-75
2021/03/03 02:48:37;;;;;;;77.40;40.78;;;128.80;1945.60;;;;;;4894514;29;20125;-74
2021/03/03 02:51:03;;;;;;;66.10;39.60;;;128.70;1945.60;;;;;;4931082;29;20039;-74
2021/03/03 02:53:29;;;;;;;65.90;41.25;;;128.50;1971.20;;;;;;4916213;29;20024;-74
2021/03/03 02:55:54;;;;;;;70.45;40.95;;;128.50;1971.20;;;;;;4929832;29;20083;-75
2021/03/03 02:58:21;;;;;;;79.50;43.13;;;128.50;1996.80;;;;;;4907546;29;20037;-75
2021/03/03 03:00:50;;;;;;;69.55;41.40;;;128.50;1971.20;;;;;;4912385;29;20060;-75
2021/03/03 03:03:35;;;;;;;71.03;41.97;;;128.50;1971.20;;;;;;4899194;29;20421;-75
2021/03/03 03:06:23;;;;;;;73.22;42.58;;;128.60;1971.20;;;;;;4903943;29;20024;-75
2021/03/03 03:08:52;;;;;;;69.95;42.25;;;128.60;1971.20;;;;;;4922682;29;20032;-75
2021/03/03 03:11:22;;;;;;;69.35;42.33;;;128.60;1971.20;;;;;;4916224;29;20529;-75
2021/03/03 03:13:50;;;;;;;72.80;43.75;;;128.60;1971.20;;;;;;4917054;29;20032;-75
2021/03/03 03:16:16;;;;;;;82.13;45.10;;;128.60;1971.20;;;;;;4935913;29;20028;-75
2021/03/03 03:18:46;;;;;;;71.85;43.13;;;128.60;1971.20;;;;;;4921823;29;20032;-75
2021/03/03 03:21:15;;;;;;;72.75;44.47;;;128.60;1971.20;;;;;;4905847;29;20082;-74
2021/03/03 03:23:41;;;;;;;72.50;42.35;;;128.50;1971.20;;;;;;4898026;29;20489;-75
2021/03/03 03:26:07;;;;;;;69.30;41.60;;;128.50;1971.20;;;;;;4915669;29;20028;-74
2021/03/03 03:28:40;;;;;;;72.15;43.90;;;128.50;1971.20;;;;;;4932391;29;20023;-74
2021/03/03 03:31:08;;;;;;;75.32;41.83;;;128.30;1996.80;;;;;;4924672;29;20024;-74
2021/03/03 03:33:34;;;;;;;73.65;46.17;;;128.10;2022.40;;;;;;4914228;29;20055;-75
2021/03/03 03:36:01;;;;;;;72.85;43.40;;;128.00;2048.00;;;;;;4923453;29;20648;-75
2021/03/03 03:38:28;;;;;;;74.25;46.35;;;103.20;2048.00;;;;;;4920777;29;20116;-74
2021/03/03 03:40:54;;;;;;;70.95;45.08;;;103.10;2048.00;;;;;;4914177;29;20024;-75
2021/03/03 03:43:21;;;;;;;72.10;45.88;;;103.20;2048.00;;;;;;4916900;29;20036;-75
2021/03/03 03:45:49;;;;;;;73.43;45.17;;;103.30;2048.00;;;;;;4897869;29;20032;-75
2021/03/03 03:48:16;;;;;;;79.07;47.00;;;103.30;2048.00;;;;;;4922070;29;20024;-74
2021/03/03 03:50:42;;;;;;;74.22;42.45;;;128.00;2073.60;;;;;;4931501;29;20527;-75
2021/03/03 03:53:08;;;;;;;72.20;43.45;;;128.00;2048.00;;;;;;4898902;29;20464;-75
2021/03/03 03:55:36;;;;;;;75.53;43.75;;;128.00;2048.00;;;;;;4919316;29;20489;-75
2021/03/03 03:58:04;;;;;;;71.35;42.88;;;128.00;2048.00;;;;;;4914260;29;20032;-75
2021/03/03 04:00:30;;;;;;;78.95;48.67;;;103.20;2048.00;;;;;;4898621;29;20119;-75
2021/03/03 04:02:56;;;;;;;77.40;48.13;;;103.00;2073.60;;;;;;4920759;29;20090;-75
2021/03/03 04:05:23;;;;;;;83.97;46.63;;;102.90;2073.60;;;;;;4923109;29;20054;-74
2021/03/03 04:07:49;;;;;;;80.82;47.75;;;102.80;2099.20;;;;;;4915292;29;20032;-76
2021/03/03 04:10:18;;;;;;;89.45;49.80;;;102.80;2099.20;;;;;;4915633;29;20021;-75
2021/03/03 04:12:44;;;;;;;98.55;52.78;;;102.80;2099.20;;;;;;4907632;29;20024;-75
2021/03/03 04:15:11;;;;;;;85.45;48.80;;;102.80;2099.20;;;;;;4933003;29;20421;-75
2021/03/03 04:17:38;;;;;;;81.30;48.55;;;102.80;2099.20;;;;;;4923979;29;20481;-75
2021/03/03 04:20:06;;;;;;;89.55;49.80;;;102.80;2124.80;;;;;;4930806;29;20484;-74
2021/03/03 04:22:32;;;;;;;86.35;49.33;;;102.80;2099.20;;;;;;4901639;29;20039;-74
2021/03/03 04:24:58;;;;;;;85.38;50.25;;;102.70;2124.80;;;;;;4931660;29;20028;-74
2021/03/03 04:27:24;;;;;;;96.18;54.45;;;102.70;2124.80;;;;;;4920532;29;20024;-75
2021/03/03 04:29:49;;;;;;;90.75;52.45;;;102.60;2124.80;;;;;;4910769;29;20518;-75
2021/03/03 04:32:15;;;;;;;97.75;53.63;;;102.60;2124.80;;;;;;4907074;29;20028;-76
2021/03/03 04:34:41;;;;;;;97.75;57.70;;;102.50;2124.80;;;;;;4932988;29;20519;-74
2021/03/03 04:37:07;;;;;;;102.25;58.85;;;102.50;2150.40;;;;;;4932017;29;20028;-73
2021/03/03 04:39:32;;;;;;;89.38;54.58;;;102.50;2150.40;;;;;;4925535;29;20028;-75
2021/03/03 04:41:58;;;;;;;91.38;51.65;;;102.40;2150.40;;;;;;4918338;29;20060;-75
2021/03/03 04:44:24;;;;;;;99.75;55.95;;;102.40;2150.40;;;;;;4918646;29;20080;-75
2021/03/03 04:46:49;;;;;;;91.35;57.80;;;102.40;2150.40;;;;;;4918193;29;20107;-76
2021/03/03 04:49:15;;;;;;;98.88;60.13;;;102.40;2150.40;;;;;;4918337;29;20090;-75
2021/03/03 04:51:41;;;;;;;95.28;56.45;;;102.40;2150.40;;;;;;4923105;29;20022;-76
2021/03/03 04:54:07;;;;;;;94.32;56.15;;;77.70;2150.40;;;;;;4918034;29;20032;-76
2021/03/03 04:56:32;;;;;;;93.95;53.15;;;77.70;2150.40;;;;;;4934752;29;20032;-75
2021/03/03 04:58:58;;;;;;;96.03;53.55;;;77.70;2150.40;;;;;;4922178;29;20046;-74
2021/03/03 05:01:24;;;;;;;91.05;52.75;;;77.70;2150.40;;;;;;4921090;29;20028;-73
2021/03/03 05:03:49;;;;;;;88.20;52.00;;;77.70;2150.40;;;;;;4921060;29;20039;-75
2021/03/03 05:06:15;;;;;;;90.72;54.42;;;102.40;2150.40;;;;;;4930639;29;20039;-73
2021/03/03 05:08:41;;;;;;;92.55;54.22;;;102.40;2124.80;;;;;;4923181;29;20439;-74
2021/03/03 05:11:07;;;;;;;92.50;58.08;;;102.40;2150.40;;;;;;4930357;29;20035;-73
2021/03/03 05:13:32;;;;;;;99.00;56.38;;;102.50;2150.40;;;;;;4930623;29;20032;-73
2021/03/03 05:15:58;;;;;;;92.38;57.70;;;102.50;2150.40;;;;;;4923436;29;20028;-72
2021/03/03 05:18:24;;;;;;;99.50;59.58;;;102.50;2150.40;;;;;;4927072;29;20079;-73
2021/03/03 05:20:50;;;;;;;101.43;55.95;;;102.50;2150.40;;;;;;4920485;29;20561;-73
2021/03/03 05:23:37;;;;;;;94.55;55.90;;;102.50;2150.40;;;;;;4917781;29;20028;-73
2021/03/03 05:26:03;;;;;;;99.32;60.55;;;102.50;2150.40;;;;;;4934474;29;20031;-73
2021/03/03 05:28:29;;;;;;;98.75;58.95;;;102.50;2150.40;;;;;;4920099;29;20392;-74
2021/03/03 05:30:55;;;;;;;96.43;59.05;;;102.40;2150.40;;;;;;4919961;29;20028;-74
2021/03/03 05:33:28;;;;;;;101.00;59.75;;;102.40;2150.40;;;;;;4926344;29;20094;-74
2021/03/03 05:35:55;;;;;;;100.10;59.58;;;102.40;2150.40;;;;;;4932330;29;20024;-73
2021/03/03 05:38:21;;;;;;;101.93;60.53;;;102.40;2150.40;;;;;;4927999;29;20039;-73
2021/03/03 05:40:48;;;;;;;97.82;60.17;;;102.40;2150.40;;;;;;4926204;29;20028;-73
2021/03/03 05:43:15;;;;;;;99.10;58.28;;;102.50;2124.80;;;;;;4928011;29;20059;-73
2021/03/03 05:45:42;;;;;;;105.22;61.40;;;102.50;2124.80;;;;;;4932333;29;20035;-73
2021/03/03 05:48:30;;;;;;;96.05;62.70;;;102.60;2124.80;;;;;;4920293;29;20021;-73
2021/03/03 05:51:00;;;;;;;101.35;62.35;;;102.60;2150.40;;;;;;4929095;29;20016;-75
2021/03/03 05:53:27;;;;;;;97.90;58.63;;;102.60;2124.80;;;;;;4913389;29;20040;-74
2021/03/03 05:55:57;;;;;;;94.18;56.80;;;102.60;2124.80;;;;;;4916220;29;20107;-74
2021/03/03 05:58:33;;;;;;;93.22;59.20;;;102.70;2150.40;;;;;;4928660;29;20507;-73
2021/03/03 06:01:00;;;;;;;99.38;60.83;;;102.70;2150.40;;;;;;4916043;29;20028;-73
2021/03/03 06:03:27;;;;;;;106.10;59.80;;;102.80;2124.80;;;;;;4925626;29;20043;-74
2021/03/03 06:05:54;;;;;;;97.00;61.30;;;102.80;2124.80;;;;;;4898975;29;20035;-73
2021/03/03 06:08:23;;;;;;;98.68;60.67;;;102.90;2124.80;;;;;;4916093;29;20031;-73
2021/03/03 06:10:49;;;;;;;94.03;56.88;;;102.90;2124.80;;;;;;4919185;29;20027;-73
2021/03/03 06:13:16;;;;;;;104.13;60.85;;;103.00;2124.80;;;;;;4921232;29;20027;-73
2021/03/03 06:15:42;;;;;;;99.55;56.88;;;103.10;2099.20;;;;;;4916285;29;20556;-74
2021/03/03 06:18:10;;;;;;;97.43;59.20;;;103.10;2099.20;;;;;;4921098;29;20076;-73
2021/03/03 06:20:40;;;;;;;98.22;57.58;;;103.20;2099.20;;;;;;4917794;29;20024;-73
2021/03/03 06:23:19;;;;;;;95.57;56.08;;;103.30;2099.20;;;;;;4897237;29;20032;-73
2021/03/03 06:26:06;;;;;;;88.85;55.60;;;128.00;2099.20;;;;;;4917071;29;20377;-74
2021/03/03 06:28:43;;;;;;;82.03;52.88;;;128.00;2124.80;;;;;;4905013;29;20037;-73
2021/03/03 06:31:29;;;;;;;88.50;54.55;;;128.20;2124.80;;;;;;4912198;29;20175;-73
2021/03/03 06:34:23;;;;;;;97.78;54.92;;;128.30;2099.20;;;;;;4876695;29;944707;-74
2021/03/03 06:36:55;;;;;;;92.55;54.55;;;128.40;2099.20;;;;;;4934012;29;20036;-73
2021/03/03 06:39:30;;;;;;;85.13;52.85;;;128.50;2099.20;;;;;;4909994;29;20039;-73
2021/03/03 06:41:59;;;;;;;94.55;55.78;;;128.60;2099.20;;;;;;4917119;29;20023;-73
2021/03/03 06:44:44;;;;;;;89.10;52.33;;;128.80;2073.60;;;;;;4912370;29;20055;-74
2021/03/03 06:47:09;;;;;;;76.30;47.03;;;128.90;2073.60;;;;;;4910802;29;20024;-73
2021/03/03 06:49:35;;;;;;;87.35;53.88;;;153.70;2048.00;;;;;;4907189;29;20052;-73
2021/03/03 06:52:01;;;;;;;92.45;55.67;;;153.80;2048.00;;;;;;4910232;29;20028;-73
2021/03/03 06:54:27;;;;;;;93.78;56.60;;;153.90;2048.00;;;;;;4912660;29;20028;-73
2021/03/03 06:56:54;;;;;;;99.70;56.20;;;154.10;2022.40;;;;;;4909868;29;20112;-74
2021/03/03 06:59:26;;;;;;;98.50;53.42;;;154.20;2022.40;;;;;;4909111;29;20027;-74
2021/03/03 07:01:53;;;;;;;88.18;55.78;;;154.40;1996.80;;;;;;4903525;29;20043;-75
2021/03/03 07:04:30;;;;;;;112.78;65.88;;;154.50;1971.20;;;;;;4910060;29;20040;-74
2021/03/03 07:07:16;;;;;;;101.50;57.47;;;179.30;1971.20;;;;;;4922081;29;20032;-74
2021/03/03 07:09:45;;;;;;;94.90;58.75;;;179.50;1945.60;;;;;;4910003;29;20029;-75
2021/03/03 07:12:13;;;;;;;78.10;49.50;;;179.60;1920.00;;;;;;4911279;29;20481;-75
2021/03/03 07:14:40;;;;;;;71.60;45.72;;;179.70;1894.40;;;;;;4908155;29;20031;-75
2021/03/03 07:17:17;;;;;;;73.85;45.72;;;179.90;1868.80;;;;;;4897886;29;20047;-74
2021/03/03 07:19:44;;;;;;;66.35;39.53;;;180.10;1843.20;;;;;;4894260;29;20028;-76
2021/03/03 07:22:29;;;;;;;69.10;43.22;;;204.80;1843.20;;;;;;4908025;29;20033;-75
2021/03/03 07:24:58;;;;;;;62.50;38.50;;;205.00;1817.60;;;;;;4915204;29;20051;-74
2021/03/03 07:27:24;;;;;;;47.60;26.38;;;205.20;1817.60;;;;;;4900112;29;20477;-73
2021/03/03 07:29:52;;;;;;;36.58;24.67;;;205.40;1740.80;;;;;;4923008;29;20107;-74
2021/03/03 07:32:20;;;;;;;40.58;27.38;;;205.50;1689.60;;;;;;4906439;29;20438;-74
2021/03/03 07:34:47;;;;;;;52.17;31.92;;;205.70;1689.60;;;;;;4915391;29;20041;-74
2021/03/03 07:37:15;;;;;;;49.28;28.15;;;230.50;1689.60;;;;;;4920461;29;20024;-74
2021/03/03 07:39:45;;;;;;;55.28;31.58;;;230.80;1664.00;;;;;;4914346;29;20028;-74
2021/03/03 07:42:18;;;;;;;45.08;26.85;;;231.10;1638.40;;;;;;4912587;29;20500;-74
2021/03/03 07:44:46;;;;;;;42.08;27.95;;;231.30;1587.20;;;;;;4910314;29;20024;-74
2021/03/03 07:47:14;;;;;;;43.33;27.42;;;256.10;1587.20;;;;;;4909463;29;20039;-73
2021/03/03 07:49:42;;;;;;;44.60;28.48;;;256.40;1561.60;;;;;;4909072;29;20031;-74
2021/03/03 07:52:09;;;;;;;47.55;29.85;;;256.70;1510.40;;;;;;4898217;29;20040;-73
2021/03/03 07:54:35;;;;;;;55.75;32.75;;;281.60;1510.40;;;;;;4910345;29;20436;-73
2021/03/03 07:57:04;;;;;;;43.08;27.67;;;281.80;1510.40;;;;;;4909548;29;20433;-73
2021/03/03 07:59:31;;;;;;;47.17;28.63;;;282.20;1459.20;;;;;;4912249;29;20036;-73
2021/03/03 08:01:57;;;;;;;41.97;26.75;;;282.30;1459.20;;;;;;4908041;29;20037;-76
2021/03/03 08:04:39;;;;;;;43.95;27.77;;;282.40;1433.60;;;;;;4909469;29;20032;-73
2021/03/03 08:07:19;;;;;;;47.35;28.67;;;307.20;1433.60;;;;;;4923353;29;20036;-75
2021/03/03 08:10:07;;;;;;;37.78;28.60;;;307.50;1408.00;;;;;;4906897;29;20501;-74
2021/03/03 08:12:33;;;;;;;46.40;29.70;;;307.60;1382.40;;;;;;4912991;29;20788;-74
2021/03/03 08:14:58;;;;;;;43.58;29.67;;;307.90;1382.40;;;;;;4914213;29;20017;-74
2021/03/03 08:17:27;;;;;;;48.05;29.83;;;307.90;1356.80;;;;;;4911482;29;20024;-76
2021/03/03 08:20:01;;;;;;;48.97;32.05;;;332.80;1382.40;;;;;;4912116;29;20032;-74
2021/03/03 08:22:52;;;;;;;41.63;29.17;;;333.30;1331.20;;;;;;4909901;29;20045;-74
2021/03/03 08:25:40;;;;;;;42.90;28.27;;;333.60;1280.00;;;;;;4900851;29;20551;-74
2021/03/03 08:28:26;;;;;;;42.35;29.88;;;358.50;1280.00;;;;;;4907151;29;20084;-74
2021/03/03 08:31:07;;;;;;;44.83;29.87;;;333.70;1280.00;;;;;;4914209;29;20028;-74
2021/03/03 08:33:38;;;;;;;44.67;28.25;;;358.90;1254.40;;;;;;4899883;29;20040;-74
2021/03/03 08:36:05;;;;;;;43.10;29.00;;;359.30;1203.20;;;;;;4916596;29;20068;-74
2021/03/03 08:38:31;;;;;;;42.28;28.77;;;384.20;1203.20;;;;;;4909345;29;20082;-74
2021/03/03 08:41:14;;;;;;;43.40;30.30;;;384.30;1177.60;;;;;;4913668;29;20440;-74
2021/03/03 08:43:46;;;;;;;50.67;35.15;;;384.40;1177.60;;;;;;4911147;29;20824;-75
2021/03/03 08:46:20;;;;;;;47.95;34.30;;;384.60;1177.60;;;;;;4907080;29;20124;-73
2021/03/03 08:48:52;;;;;;;59.15;36.63;;;409.60;1152.00;;;;;;4908847;29;20497;-74
2021/03/03 08:51:41;;;;;;;50.90;36.13;;;384.70;1152.00;;;;;;4899714;29;20160;-74
2021/03/03 08:54:11;;;;;;;50.97;35.47;;;409.90;1126.40;;;;;;4868726;29;20045;-76
2021/03/03 08:56:49;;;;;;;51.65;33.00;;;409.80;1126.40;;;;;;4862115;29;20045;-75
2021/03/03 08:59:36;;;;;;;51.08;35.50;;;410.20;1100.80;;;;;;4879142;29;20047;-75
2021/03/03 09:02:09;;;;;;;58.42;36.97;;;410.30;1100.80;;;;;;4869810;29;20034;-75
2021/03/03 09:04:40;;;;;;;54.10;36.50;;;435.60;1075.20;;;;;;4874691;29;20505;-75
2021/03/03 09:07:07;;;;;;;44.65;30.63;;;435.50;1049.60;;;;;;4858815;29;20034;-74
2021/03/03 09:09:45;;;;;;;38.38;28.90;;;435.30;1075.20;;;;;;4870790;29;20586;-74
2021/03/03 09:12:21;;;;;;;42.33;29.90;;;435.50;1024.00;;;;;;4865003;29;20595;-75
2021/03/03 09:14:48;;;;;;;;;;;435.20;1049.60;;;;;;4868947;29;20041;-72
2021/03/03 09:17:17;;;;;;;41.85;27.08;;;435.50;1049.60;;;;;;4868562;29;19979;-75
2021/03/03 09:19:43;;;;;;;48.80;29.80;;;436.10;998.40;;;;;;4866516;29;20037;-75
2021/03/03 09:22:26;;;;;;;40.42;28.13;;;461.30;998.40;;;;;;4859950;29;20037;-75
2021/03/03 09:24:55;;;;;;;35.30;25.85;;;461.50;998.40;;;;;;4874617;29;20503;-74
2021/03/03 09:27:23;;;;;;;36.20;25.38;;;461.60;972.80;;;;;;4861650;29;20724;-73
2021/03/03 09:29:49;;;;;;;37.45;25.42;;;486.50;947.20;;;;;;4865094;29;20026;-73
2021/03/03 09:32:21;;;;;;;37.67;25.65;;;486.70;921.60;;;;;;4897938;29;20032;-73
2021/03/03 09:35:01;;;;;;;32.67;24.33;;;487.10;896.00;;;;;;4925282;29;20225;-74
2021/03/03 09:37:35;;;;;;;31.05;23.70;;;487.20;896.00;;;;;;4913613;29;20032;-73
2021/03/03 09:40:02;;;;;;;30.90;22.45;;;487.20;870.40;;;;;;4926447;29;20822;-74
2021/03/03 09:42:39;;;;;;;36.42;21.60;;;512.10;870.40;;;;;;4908935;29;20393;-74
2021/03/03 09:45:08;;;;;;;30.80;23.73;;;512.10;870.40;;;;;;4926838;29;20138;-74
2021/03/03 09:47:39;;;;;;;31.45;21.35;;;512.60;844.80;;;;;;4910049;29;20032;-76
2021/03/03 09:50:09;;;;;;;31.55;21.80;;;537.60;844.80;;;;;;4907659;29;20103;-75
2021/03/03 09:52:40;;;;;;;99.40;54.60;;;512.60;819.20;;;;;;4910547;29;20028;-74
2021/03/03 09:55:11;;;;;;;41.95;26.75;;;537.80;844.80;;;;;;4923804;29;20783;-74
2021/03/03 09:57:38;;;;;;;36.70;24.77;;;512.40;844.80;;;;;;4909516;29;20028;-75
2021/03/03 10:00:11;;;;;;;31.67;25.45;;;537.60;819.20;;;;;;4907803;29;20017;-75
2021/03/03 10:02:46;;;;;;;41.90;28.38;;;538.20;793.60;;;;;;4904940;29;20033;-74
2021/03/03 10:05:17;;;;;;;31.15;22.08;;;563.40;793.60;;;;;;4892847;29;20028;-75
2021/03/03 10:07:49;;;;;;;53.95;36.30;;;563.70;768.00;;;;;;4906714;29;20044;-74
2021/03/03 10:10:17;;;;;;;28.77;20.40;;;564.10;742.40;;;;;;4908812;29;20092;-74
2021/03/03 10:12:43;;;;;;;29.40;21.25;;;563.90;742.40;;;;;;4907407;29;20453;-75
2021/03/03 10:15:13;;;;;;;24.80;18.42;;;588.80;742.40;;;;;;4907214;29;20068;-74
2021/03/03 10:17:47;;;;;;;29.27;18.45;;;588.80;742.40;;;;;;4910147;29;20032;-74
2021/03/03 10:20:40;;;;;;;24.55;15.98;;;589.10;742.40;;;;;;4910131;29;20032;-75
2021/03/03 10:23:20;;;;;;;25.15;16.77;;;589.40;742.40;;;;;;4921016;29;20045;-75
2021/03/03 10:25:59;;;;;;;24.77;17.52;;;589.40;742.40;;;;;;4918598;29;20032;-74
2021/03/03 10:28:27;;;;;;;27.40;18.35;;;589.70;716.80;;;;;;4911238;29;20032;-74
2021/03/03 10:30:54;;;;;;;25.63;17.92;;;614.60;716.80;;;;;;4906216;29;20029;-77
2021/03/03 10:33:31;;;;;;;23.40;18.27;;;614.40;742.40;;;;;;4910833;29;20032;-77
2021/03/03 10:35:59;;;;;;;22.42;16.92;;;614.50;716.80;;;;;;4908468;29;20104;-76
2021/03/03 10:38:27;;;;;;;26.38;16.67;;;588.80;716.80;;;;;;4912856;29;20099;-76
2021/03/03 10:40:55;;;;;;;24.35;18.20;;;563.60;716.80;;;;;;4910684;29;20027;-77
2021/03/03 10:43:24;;;;;;;25.88;19.80;;;563.90;742.40;;;;;;4912910;29;20385;-76
2021/03/03 10:46:07;;;;;;;22.35;16.25;;;538.40;742.40;;;;;;4914193;29;20095;-77
2021/03/03 10:48:33;;;;;;;22.60;14.98;;;563.20;768.00;;;;;;4909046;29;20095;-75
2021/03/03 10:51:00;;;;;;;21.10;14.50;;;588.80;742.40;;;;;;4908172;29;20031;-75
2021/03/03 10:53:59;;;;;;;20.20;13.32;;;589.30;716.80;;;;;;4906476;29;20436;-75
2021/03/03 10:56:29;;;;;;;20.02;15.05;;;589.70;716.80;;;;;;4905329;29;20067;-76
2021/03/03 10:59:06;;;;;;;22.02;13.27;;;589.40;716.80;;;;;;4906369;29;20039;-74
2021/03/03 11:01:56;;;;;;;20.02;14.60;;;563.70;716.80;;;;;;4908549;29;20096;-74
2021/03/03 11:04:22;;;;;;;22.20;15.63;;;589.10;742.40;;;;;;4895869;29;20028;-74
2021/03/03 11:06:47;;;;;;;20.52;14.95;;;589.70;716.80;;;;;;4911536;29;20425;-75
2021/03/03 11:09:19;;;;;;;19.40;15.63;;;615.20;665.60;;;;;;4905906;29;20493;-75
2021/03/03 11:11:55;;;;;;;22.73;14.88;;;614.50;691.20;;;;;;4909529;29;20035;-75
2021/03/03 11:14:21;;;;;;;26.15;15.25;;;589.50;716.80;;;;;;4896847;29;20040;-75
2021/03/03 11:16:51;;;;;;;31.15;20.50;;;589.40;716.80;;;;;;4907602;29;20126;-75
2021/03/03 11:19:18;;;;;;;26.13;17.15;;;614.80;691.20;;;;;;4912173;29;20374;-75
2021/03/03 11:21:44;;;;;;;21.77;15.27;;;589.70;691.20;;;;;;4907836;29;20107;-75
2021/03/03 11:24:10;;;;;;;19.48;14.90;;;640.00;665.60;;;;;;4912194;29;20035;-76
2021/03/03 11:26:37;;;;;;;25.52;15.55;;;640.20;640.00;;;;;;4916312;29;20508;-76
2021/03/03 11:29:03;;;;;;;17.02;12.52;;;640.00;640.00;;;;;;4910999;29;20046;-74
2021/03/03 11:31:31;;;;;;;18.92;11.45;;;614.80;665.60;;;;;;4914363;29;20039;-76
2021/03/03 11:33:57;;;;;;;18.75;11.82;;;563.90;716.80;;;;;;4896109;29;20048;-76
2021/03/03 11:36:22;;;;;;;20.63;11.95;;;589.50;665.60;;;;;;4924795;29;20083;-76
2021/03/03 11:38:48;;;;;;;26.08;14.77;;;614.90;640.00;;;;;;4913848;29;20118;-75
2021/03/03 11:41:14;;;;;;;20.85;12.20;;;640.00;614.40;;;;;;4910383;29;20115;-75
2021/03/03 11:43:40;;;;;;;18.23;11.93;;;640.40;588.80;;;;;;4906680;29;20032;-75
2021/03/03 11:46:06;;;;;;;35.17;18.10;;;640.50;563.20;;;;;;4913259;29;20040;-75
2021/03/03 11:48:32;;;;;;;22.52;10.77;;;665.90;563.20;;;;;;4909782;29;20035;-75
2021/03/03 11:50:58;;;;;;;25.40;16.60;;;615.10;588.80;;;;;;4909033;29;20103;-76
2021/03/03 11:53:24;;;;;;;21.95;12.13;;;589.30;640.00;;;;;;4905257;29;20161;-75
2021/03/03 11:55:50;;;;;;;17.55;12.27;;;589.70;614.40;;;;;;4920692;29;20381;-75
2021/03/03 11:58:15;;;;;;;12.93;9.57;;;614.90;614.40;;;;;;4909017;29;20115;-75
2021/03/03 12:00:41;;;;;;;18.48;11.60;;;640.00;563.20;;;;;;4910376;29;20071;-75
2021/03/03 12:03:07;;;;;;;16.88;11.10;;;640.20;588.80;;;;;;4897870;29;20493;-75
2021/03/03 12:05:33;;;;;;;19.83;11.40;;;614.80;640.00;;;;;;4911386;29;20032;-75
2021/03/03 12:07:59;;;;;;;16.13;11.80;;;615.20;614.40;;;;;;4910225;29;20080;-76
2021/03/03 12:10:25;;;;;;;17.95;10.10;;;640.00;588.80;;;;;;4893975;29;20039;-75
2021/03/03 12:12:51;;;;;;;18.08;10.15;;;589.50;640.00;;;;;;4909972;29;20489;-75